createdAt,value
2023-08-14T00:01:22.876Z,19.58
2023-08-14T00:04:24.337Z,19.74
2023-08-14T00:07:25.809Z,19.85
2023-08-14T00:10:27.840Z,19.92
2023-08-14T00:13:29.322Z,19.73
2023-08-14T00:16:30.721Z,19.92
2023-08-14T00:19:32.173Z,19.90
2023-08-14T00:22:33.604Z,19.99
2023-08-14T00:25:35.002Z,19.91
2023-08-14T00:28:36.412Z,19.92
2023-08-14T00:31:37.935Z,19.89
2023-08-14T00:34:39.414Z,19.89
2023-08-14T00:37:44.503Z,19.94
2023-08-14T00:40:45.973Z,19.87
2023-08-14T00:43:47.385Z,19.99
2023-08-14T00:46:49.122Z,19.99
2023-08-14T00:49:50.576Z,19.96
2023-08-14T00:52:52.328Z,19.91
2023-08-14T00:55:53.736Z,19.82
2023-08-14T00:58:55.133Z,19.86
2023-08-14T01:01:56.595Z,19.86
2023-08-14T01:04:58.044Z,19.93
2023-08-14T01:07:59.456Z,19.93
2023-08-14T01:11:03.963Z,20.09
2023-08-14T01:14:08.349Z,19.93
2023-08-14T01:17:10.299Z,20.07
2023-08-14T01:20:12.461Z,20.11
2023-08-14T01:23:15.067Z,20.25
2023-08-14T01:26:16.461Z,20.25
2023-08-14T01:29:17.938Z,20.18
2023-08-14T01:32:19.620Z,20.20
2023-08-14T01:35:21.940Z,20.07
2023-08-14T01:38:27.615Z,20.06
2023-08-14T01:41:29.863Z,20.14
2023-08-14T01:44:31.692Z,20.04
2023-08-14T01:47:33.122Z,20.01
2023-08-14T01:50:34.612Z,20.07
2023-08-14T01:53:39.171Z,19.96
2023-08-14T01:56:40.572Z,19.76
2023-08-14T01:59:46.283Z,19.87
2023-08-14T02:02:47.925Z,19.72
2023-08-14T02:05:49.383Z,19.83
2023-08-14T02:08:50.805Z,19.81
2023-08-14T02:11:52.250Z,19.69
2023-08-14T02:14:54.194Z,19.88
2023-08-14T02:17:55.774Z,19.87
2023-08-14T02:20:57.302Z,19.94
2023-08-14T02:23:58.722Z,19.78
2023-08-14T02:27:00.159Z,19.64
2023-08-14T02:30:01.595Z,19.72
2023-08-14T02:33:03.328Z,19.70
2023-08-14T02:36:04.840Z,19.64
2023-08-14T02:39:06.262Z,19.65
2023-08-14T02:42:07.902Z,19.62
2023-08-14T02:45:09.537Z,19.63
2023-08-14T02:48:10.972Z,19.52
2023-08-14T02:51:12.436Z,19.48
2023-08-14T02:54:13.864Z,19.44
2023-08-14T02:57:15.255Z,19.49
2023-08-14T03:00:16.650Z,19.38
2023-08-14T03:03:18.115Z,19.27
2023-08-14T03:06:19.671Z,19.30
2023-08-14T03:09:21.210Z,19.35
2023-08-14T03:12:22.615Z,19.13
2023-08-14T03:15:24.110Z,19.25
2023-08-14T03:18:25.509Z,19.26
2023-08-14T03:21:27.175Z,19.16
2023-08-14T03:24:28.598Z,19.02
2023-08-14T03:27:30.022Z,19.07
2023-08-14T03:30:31.489Z,18.99
2023-08-14T03:33:32.899Z,18.88
2023-08-14T03:36:34.363Z,18.72
2023-08-14T03:39:35.797Z,18.42
2023-08-14T03:42:37.245Z,18.45
2023-08-14T03:45:38.648Z,18.33
2023-08-14T03:48:40.068Z,18.50
2023-08-14T03:51:41.485Z,18.41
2023-08-14T03:54:42.929Z,18.25
2023-08-14T03:57:44.340Z,18.42
2023-08-14T04:00:48.150Z,18.51
2023-08-14T04:03:49.712Z,18.52
2023-08-14T04:06:51.272Z,18.51
2023-08-14T04:09:52.734Z,18.47
2023-08-14T04:12:57.649Z,18.54
2023-08-14T04:16:01.043Z,18.50
2023-08-14T04:19:02.590Z,18.44
2023-08-14T04:22:04.125Z,18.35
2023-08-14T04:25:05.749Z,18.32
2023-08-14T04:28:07.189Z,18.20
2023-08-14T04:31:08.615Z,18.22
2023-08-14T04:34:11.564Z,18.25
2023-08-14T04:37:13.445Z,18.13
2023-08-14T04:40:15.091Z,18.21
2023-08-14T04:43:16.888Z,18.20
2023-08-14T04:46:53.369Z,18.23
2023-08-14T04:50:00.026Z,18.38
2023-08-14T04:53:02.832Z,18.49
2023-08-14T04:56:05.329Z,18.53
2023-08-14T04:59:06.781Z,18.53
2023-08-14T05:02:08.229Z,18.62
2023-08-14T05:05:09.618Z,18.49
2023-08-14T05:08:11.086Z,18.59
2023-08-14T05:11:12.517Z,18.63
2023-08-14T05:14:13.968Z,18.58
2023-08-14T05:17:15.425Z,18.56
2023-08-14T05:20:17.144Z,18.58
2023-08-14T05:23:18.943Z,18.51
2023-08-14T05:26:20.478Z,18.43
2023-08-14T05:29:21.894Z,18.53
2023-08-14T05:32:23.487Z,18.62
2023-08-14T05:35:25.405Z,18.57
2023-08-14T05:38:26.801Z,18.49
2023-08-14T05:41:28.214Z,18.45
2023-08-14T05:44:29.633Z,18.49
2023-08-14T05:47:31.044Z,18.52
2023-08-14T05:50:32.614Z,18.55
2023-08-14T05:53:34.039Z,18.52
2023-08-14T05:56:35.454Z,18.58
2023-08-14T05:59:36.867Z,18.68
2023-08-14T06:02:38.344Z,18.65
2023-08-14T06:05:39.868Z,18.72
2023-08-14T06:08:41.331Z,18.82
2023-08-14T06:11:42.837Z,18.83
2023-08-14T06:14:44.409Z,18.90
2023-08-14T06:17:45.894Z,18.92
2023-08-14T06:20:47.409Z,18.84
2023-08-14T06:23:48.819Z,18.94
2023-08-14T06:26:50.412Z,18.87
2023-08-14T06:29:51.800Z,18.88
2023-08-14T06:32:53.246Z,18.98
2023-08-14T06:35:55.379Z,19.06
2023-08-14T06:38:57.400Z,19.03
2023-08-14T06:41:58.907Z,19.13
2023-08-14T06:45:00.423Z,19.34
2023-08-14T06:48:02.020Z,19.39
2023-08-14T06:51:03.564Z,19.47
2023-08-14T06:54:05.422Z,19.54
2023-08-14T06:57:07.253Z,19.81
2023-08-14T07:00:13.502Z,19.87
2023-08-14T07:03:15.195Z,19.84
2023-08-14T07:06:16.615Z,19.90
2023-08-14T07:09:18.249Z,20.09
2023-08-14T07:12:20.019Z,20.26
2023-08-14T07:15:21.756Z,20.32
2023-08-14T07:18:23.199Z,20.38
2023-08-14T07:21:24.652Z,20.47
2023-08-14T07:24:26.061Z,20.58
2023-08-14T07:27:27.498Z,20.71
2023-08-14T07:30:28.900Z,20.83
2023-08-14T07:33:30.336Z,20.94
2023-08-14T07:36:31.729Z,20.77
2023-08-14T07:39:33.228Z,21.15
2023-08-14T07:42:34.716Z,21.24
2023-08-14T07:45:36.149Z,21.39
2023-08-14T07:48:37.612Z,21.53
2023-08-14T07:51:39.100Z,21.67
2023-08-14T07:54:40.528Z,21.74
2023-08-14T07:57:46.247Z,21.74
2023-08-14T08:00:47.748Z,21.96
2023-08-14T08:03:55.419Z,22.09
2023-08-14T08:06:56.833Z,22.17
2023-08-14T08:09:58.431Z,22.23
2023-08-14T08:12:59.861Z,22.40
2023-08-14T08:16:01.706Z,22.45
2023-08-14T08:19:04.317Z,22.75
2023-08-14T08:22:05.766Z,22.98
2023-08-14T08:25:07.289Z,23.22
2023-08-14T08:28:08.726Z,23.12
2023-08-14T08:31:10.166Z,23.33
2023-08-14T08:34:11.666Z,23.49
2023-08-14T08:37:13.220Z,23.83
2023-08-14T08:40:14.673Z,23.95
2023-08-14T08:43:16.946Z,24.05
2023-08-14T08:46:18.441Z,23.91
2023-08-14T08:49:19.945Z,24.19
2023-08-14T08:52:21.641Z,24.46
2023-08-14T08:55:23.131Z,24.71
2023-08-14T08:58:24.513Z,24.68
2023-08-14T09:01:27.059Z,24.53
2023-08-14T09:04:28.666Z,24.71
2023-08-14T09:07:30.159Z,24.97
2023-08-14T09:10:31.588Z,25.33
2023-08-14T09:13:33.181Z,25.11
2023-08-14T09:16:34.719Z,25.29
2023-08-14T09:19:36.127Z,25.14
2023-08-14T09:22:38.188Z,25.23
2023-08-14T09:25:42.792Z,25.29
2023-08-14T09:28:44.219Z,25.16
2023-08-14T09:31:45.708Z,25.24
2023-08-14T09:34:47.154Z,25.57
2023-08-14T09:37:48.848Z,25.54
2023-08-14T09:40:50.259Z,25.64
2023-08-14T09:43:51.663Z,25.78
2023-08-14T09:46:55.654Z,25.59
2023-08-14T09:49:57.512Z,25.45
2023-08-14T09:53:00.141Z,25.42
2023-08-14T09:56:06.623Z,25.57
2023-08-14T09:59:08.149Z,25.63
2023-08-14T10:02:11.339Z,25.83
2023-08-14T10:05:12.904Z,25.85
2023-08-14T10:08:14.352Z,25.44
2023-08-14T10:11:19.808Z,25.60
2023-08-14T10:14:21.622Z,25.42
2023-08-14T10:17:26.089Z,25.31
2023-08-14T10:23:30.643Z,25.71
2023-08-14T10:26:34.320Z,25.67
2023-08-14T10:29:35.787Z,25.55
2023-08-14T10:32:37.339Z,25.55
2023-08-14T10:35:51.772Z,25.35
2023-08-14T10:42:00.719Z,25.83
2023-08-14T10:45:02.163Z,26.22
2023-08-14T10:48:08.724Z,26.21
2023-08-14T10:51:10.290Z,26.18
2023-08-14T10:54:14.883Z,25.94
2023-08-14T10:57:16.350Z,26.25
2023-08-14T11:00:24.745Z,26.77
2023-08-14T11:03:26.251Z,27.16
2023-08-14T11:06:28.366Z,27.43
2023-08-14T11:09:33.178Z,27.56
2023-08-14T11:12:34.606Z,27.84
2023-08-14T11:15:36.539Z,28.00
2023-08-14T11:18:37.965Z,28.09
2023-08-14T11:21:39.366Z,28.72
2023-08-14T11:24:41.280Z,29.08
2023-08-14T11:27:43.133Z,29.52
2023-08-14T11:30:45.635Z,29.40
2023-08-14T11:33:47.070Z,29.56
2023-08-14T11:37:07.293Z,29.44
2023-08-14T11:40:11.015Z,29.47
2023-08-14T11:43:13.280Z,29.23
2023-08-14T11:46:14.689Z,29.41
2023-08-14T11:49:16.283Z,29.29
2023-08-14T11:52:17.967Z,29.24
2023-08-14T11:55:19.678Z,29.51
2023-08-14T11:58:21.112Z,29.63
2023-08-14T12:01:22.557Z,29.53
2023-08-14T12:04:24.020Z,30.14
2023-08-14T12:07:28.656Z,30.37
2023-08-14T12:10:33.826Z,30.51
2023-08-14T12:13:35.309Z,30.75
2023-08-14T12:16:40.328Z,30.68
2023-08-14T12:19:41.845Z,30.31
2023-08-14T12:22:47.126Z,29.59
2023-08-14T12:25:51.728Z,29.65
2023-08-14T12:28:53.162Z,29.27
2023-08-14T12:31:54.619Z,29.23
2023-08-14T12:34:56.049Z,29.38
2023-08-14T12:37:57.535Z,29.40
2023-08-14T12:40:58.969Z,28.93
2023-08-14T12:44:00.451Z,28.79
2023-08-14T12:47:01.906Z,28.84
2023-08-14T12:50:03.440Z,28.57
2023-08-14T12:53:04.917Z,28.21
2023-08-14T12:56:06.344Z,28.13
2023-08-14T12:59:07.893Z,27.83
2023-08-14T13:02:09.665Z,27.70
2023-08-14T13:05:11.185Z,27.50
2023-08-14T13:08:12.640Z,27.27
2023-08-14T13:11:15.255Z,27.42
2023-08-14T13:14:16.666Z,26.96
2023-08-14T13:17:18.767Z,27.08
2023-08-14T13:20:20.574Z,26.89
2023-08-14T13:23:22.026Z,26.89
2023-08-14T13:26:26.718Z,26.88
2023-08-14T13:29:29.300Z,26.95
2023-08-14T13:32:30.802Z,26.92
2023-08-14T13:35:32.253Z,26.74
2023-08-14T13:38:33.735Z,26.46
2023-08-14T13:41:35.151Z,26.40
2023-08-14T13:44:36.588Z,26.39
2023-08-14T13:47:47.969Z,26.56
2023-08-14T13:50:49.796Z,26.74
2023-08-14T13:53:51.215Z,26.91
2023-08-14T13:56:55.091Z,26.89
2023-08-14T14:03:01.138Z,27.02
2023-08-14T14:06:02.791Z,26.96
2023-08-14T14:09:04.283Z,27.32
2023-08-14T14:12:05.845Z,27.34
2023-08-14T14:15:07.292Z,27.26
2023-08-14T14:18:08.707Z,27.02
2023-08-14T14:21:10.528Z,27.15
2023-08-14T14:24:12.000Z,27.48
2023-08-14T14:27:13.410Z,27.70
2023-08-14T14:30:14.831Z,27.91
2023-08-14T14:33:16.217Z,28.50
2023-08-14T14:36:17.688Z,28.77
2023-08-14T14:39:19.781Z,28.99
2023-08-14T14:42:24.829Z,29.08
2023-08-14T14:45:34.785Z,29.52
2023-08-14T14:48:36.836Z,29.00
2023-08-14T14:51:38.255Z,29.06
2023-08-14T14:54:39.668Z,29.03
2023-08-14T14:57:41.089Z,29.07
2023-08-14T15:00:42.527Z,29.11
2023-08-14T15:03:44.069Z,28.84
2023-08-14T15:06:45.646Z,28.80
2023-08-14T15:09:47.448Z,28.77
2023-08-14T15:12:48.942Z,28.58
2023-08-14T15:15:50.488Z,28.84
2023-08-14T15:18:52.259Z,28.64
2023-08-14T15:21:53.677Z,28.53
2023-08-14T15:25:00.616Z,28.88
2023-08-14T15:28:02.033Z,28.64
2023-08-14T15:31:03.590Z,28.74
2023-08-14T15:34:05.092Z,28.92
2023-08-14T15:37:06.716Z,29.11
2023-08-14T15:40:08.749Z,29.07
2023-08-14T15:43:10.160Z,28.86
2023-08-14T15:46:11.615Z,28.73
2023-08-14T15:49:13.090Z,28.60
2023-08-14T15:52:17.538Z,28.77
2023-08-14T15:55:18.940Z,28.75
2023-08-14T15:58:20.376Z,28.76
2023-08-14T16:01:23.202Z,28.62
2023-08-14T16:04:24.750Z,28.56
2023-08-14T16:07:26.230Z,28.48
2023-08-14T16:10:29.446Z,28.56
2023-08-14T16:13:30.913Z,28.25
2023-08-14T16:16:32.358Z,27.92
2023-08-14T16:19:34.080Z,28.19
2023-08-14T16:22:35.615Z,28.32
2023-08-14T16:25:37.095Z,28.25
2023-08-14T16:28:38.555Z,27.99
2023-08-14T16:31:39.992Z,28.09
2023-08-14T16:34:41.398Z,28.21
2023-08-14T16:37:42.790Z,28.31
2023-08-14T16:40:44.524Z,28.26
2023-08-14T16:43:46.195Z,28.26
2023-08-14T16:46:47.708Z,28.12
2023-08-14T16:49:49.133Z,28.09
2023-08-14T16:52:50.598Z,28.11
2023-08-14T16:55:55.051Z,27.88
2023-08-14T16:58:56.456Z,27.89
2023-08-14T17:01:57.938Z,28.03
2023-08-14T17:05:00.423Z,27.87
2023-08-14T17:08:01.878Z,27.67
2023-08-14T17:11:03.751Z,27.61
2023-08-14T17:14:05.220Z,27.50
2023-08-14T17:17:06.675Z,27.35
2023-08-14T17:20:08.542Z,27.25
2023-08-14T17:23:09.995Z,27.13
2023-08-14T17:26:11.433Z,27.05
2023-08-14T17:29:12.858Z,26.90
2023-08-14T17:32:14.390Z,26.76
2023-08-14T17:35:17.486Z,26.74
2023-08-14T17:38:19.247Z,26.52
2023-08-14T17:41:20.718Z,26.58
2023-08-14T17:44:22.120Z,26.55
2023-08-14T17:47:24.150Z,26.50
2023-08-14T17:50:25.585Z,26.40
2023-08-14T17:53:27.100Z,26.37
2023-08-14T17:56:28.784Z,26.39
2023-08-14T17:59:30.226Z,26.14
2023-08-14T18:02:31.831Z,25.93
2023-08-14T18:05:33.313Z,25.82
2023-08-14T18:08:34.762Z,25.77
2023-08-14T18:11:36.212Z,25.74
2023-08-14T18:14:37.619Z,25.43
2023-08-14T18:17:39.034Z,25.22
2023-08-14T18:20:40.483Z,25.24
2023-08-14T18:23:42.390Z,25.03
2023-08-14T18:26:43.767Z,25.05
2023-08-14T18:29:46.206Z,24.95
2023-08-14T18:32:47.721Z,24.84
2023-08-14T18:35:49.179Z,24.66
2023-08-14T18:38:50.588Z,24.52
2023-08-14T18:41:51.995Z,24.33
2023-08-14T18:44:53.374Z,24.16
2023-08-14T18:47:54.869Z,24.08
2023-08-14T18:50:56.371Z,24.02
2023-08-14T18:53:59.423Z,23.73
2023-08-14T18:57:00.997Z,23.76
2023-08-14T19:00:02.423Z,23.73
2023-08-14T19:03:03.977Z,23.62
2023-08-14T19:06:05.478Z,23.52
2023-08-14T19:09:07.131Z,23.44
2023-08-14T19:12:08.657Z,23.43
2023-08-14T19:15:10.226Z,23.52
2023-08-14T19:18:11.688Z,23.38
2023-08-14T19:21:13.937Z,23.33
2023-08-14T19:24:15.455Z,23.25
2023-08-14T19:27:17.111Z,23.14
2023-08-14T19:30:18.780Z,23.06
2023-08-14T19:33:21.271Z,22.99
2023-08-14T19:36:22.705Z,22.86
2023-08-14T19:39:24.158Z,22.73
2023-08-14T19:42:25.636Z,22.68
2023-08-14T19:45:27.138Z,22.67
2023-08-14T19:48:28.578Z,22.69
2023-08-14T19:51:30.010Z,22.81
2023-08-14T19:54:31.565Z,22.65
2023-08-14T19:57:33.392Z,22.59
2023-08-14T20:00:34.804Z,22.47
2023-08-14T20:03:36.317Z,22.40
2023-08-14T20:06:43.958Z,22.38
2023-08-14T20:09:45.666Z,22.41
2023-08-14T20:12:47.056Z,22.31
2023-08-14T20:15:48.510Z,22.19
2023-08-14T20:18:49.981Z,22.16
2023-08-14T20:21:51.441Z,22.09
2023-08-14T20:24:54.738Z,21.89
2023-08-14T20:27:56.126Z,21.79
2023-08-14T20:30:57.614Z,21.92
2023-08-14T20:33:59.070Z,21.92
2023-08-14T20:37:00.480Z,21.87
2023-08-14T20:40:02.236Z,21.85
2023-08-14T20:43:10.432Z,21.61
2023-08-14T20:46:11.906Z,21.52
2023-08-14T20:49:15.700Z,21.49
2023-08-14T20:52:17.180Z,21.54
2023-08-14T20:55:18.601Z,21.49
2023-08-14T20:58:20.012Z,21.44
2023-08-14T21:01:21.601Z,21.52
2023-08-14T21:04:23.174Z,21.50
2023-08-14T21:07:24.602Z,21.43
2023-08-14T21:10:26.034Z,21.52
2023-08-14T21:13:30.171Z,21.43
2023-08-14T21:16:32.050Z,21.44
2023-08-14T21:19:33.479Z,21.29
2023-08-14T21:22:34.918Z,21.05
2023-08-14T21:25:46.396Z,21.14
2023-08-14T21:28:48.414Z,21.13
2023-08-14T21:31:49.908Z,21.02
2023-08-14T21:34:51.362Z,21.07
2023-08-14T21:37:52.756Z,20.95
2023-08-14T21:40:55.159Z,20.98
2023-08-14T21:43:56.565Z,20.86
2023-08-14T21:46:57.950Z,20.76
2023-08-14T21:49:59.520Z,20.84
2023-08-14T21:53:00.909Z,20.81
2023-08-14T21:56:02.283Z,20.70
2023-08-14T21:59:03.723Z,20.61
2023-08-14T22:02:05.130Z,20.56
2023-08-14T22:05:06.808Z,20.50
2023-08-14T22:08:08.210Z,20.41
2023-08-14T22:11:09.635Z,20.54
2023-08-14T22:14:11.098Z,20.60
2023-08-14T22:17:12.587Z,20.54
2023-08-14T22:20:15.493Z,20.59
2023-08-14T22:23:16.938Z,20.55
2023-08-14T22:26:18.377Z,20.57
2023-08-14T22:29:19.773Z,20.55
2023-08-14T22:32:21.177Z,20.46
2023-08-14T22:35:22.627Z,20.41
2023-08-14T22:38:24.061Z,20.65
2023-08-14T22:41:25.567Z,20.56
2023-08-14T22:44:27.001Z,20.36
2023-08-14T22:47:28.440Z,20.27
2023-08-14T22:50:31.299Z,20.24
2023-08-14T22:53:32.707Z,20.34
2023-08-14T22:56:34.128Z,20.45
2023-08-14T22:59:35.548Z,20.43
2023-08-14T23:02:39.122Z,20.29
2023-08-14T23:09:43.728Z,20.29
2023-08-14T23:12:45.090Z,20.40
2023-08-14T23:15:46.473Z,20.34
2023-08-14T23:18:47.859Z,20.37
2023-08-14T23:21:49.269Z,20.37
2023-08-14T23:24:50.625Z,20.07
2023-08-14T23:27:51.973Z,20.06
2023-08-14T23:30:53.813Z,20.08
2023-08-14T23:33:55.338Z,20.04
2023-08-14T23:36:56.702Z,19.95
2023-08-14T23:39:58.072Z,20.02
2023-08-14T23:42:59.466Z,19.80
2023-08-14T23:46:00.871Z,19.86
2023-08-14T23:49:02.243Z,20.00
2023-08-14T23:52:03.688Z,19.91
2023-08-14T23:55:05.215Z,19.99
2023-08-14T23:58:06.623Z,19.98
